LCLK/LCA METAR and TAF weather

Enter ICAO airport designator
Station Type Date Time Source
LCLK METAR 2019/09/21 04:30 UTC NOAA

LCLK 210430Z 31005KT 9999 FEW020 21/17 Q1010 NOSIG


Station Type Date Time Source
LCLK Decoded METAR 2019/09/21 04:30 UTC NOAA

Larnaca Airport, Cyprus (LCLK) 34-53N 033-38E 2M
Sep 21, 2019 - 12:30 AM EDT / 2019.09.21 0430 UTC
Wind: from the NW (310 degrees) at 6 MPH (5 KT):0
Visibility: greater than 7 mile(s):0
Sky conditions: mostly clear
Temperature: 69 F (21 C)
Dew Point: 62 F (17 C)
Relative Humidity: 77%
Pressure (altimeter): 29.83 in. Hg (1010 hPa)
ob: LCLK 210430Z 31005KT 9999 FEW020 21/17 Q1010 NOSIG
cycle: 4

Station Type Date Time Source
LCLK TAF 2019/09/20 18:33 UTC NOAA

TAF TAF LCLK 201730Z 2018/2118 31007KT 9999 FEW018
BECMG 2108/2112 18012KT
BECMG 2116/2118 30006KT

Example: see airport list